Time;durP1;ratioP1;P1;durP2;ratioP2;P2;SDS_P1;SDS_P2;PMS_P1;PMS_P2;Temp;Humidity;BMP_temperature;BMP_pressure;BME280_temperature;BME280_humidity;BME280_pressure;Samples;Min_cycle;Max_cycle;Signal;HPM_P1;HPM_P2
2021/01/23 00:02:16;;;;;;;29.20;12.70;;;;;;;3.20;100.00;100257.84;1785449;80;21307;-87
2021/01/23 00:05:22;;;;;;;22.73;11.93;;;;;;;3.16;100.00;100255.92;1786209;80;21272;-87
2021/01/23 00:08:28;;;;;;;23.67;10.85;;;;;;;3.16;100.00;100254.57;1752350;80;21193;-87
2021/01/23 00:11:33;;;;;;;28.85;11.48;;;;;;;3.13;100.00;100257.52;1785993;80;21291;-86
2021/01/23 00:14:38;;;;;;;18.70;10.72;;;;;;;3.11;100.00;100251.91;1786281;80;21156;-86
2021/01/23 00:17:43;;;;;;;22.05;11.50;;;;;;;3.10;100.00;100249.66;1785810;80;21737;-84
2021/01/23 00:20:50;;;;;;;25.97;12.25;;;;;;;3.08;100.00;100253.00;1786233;80;21192;-86
2021/01/23 00:23:55;;;;;;;20.32;10.95;;;;;;;3.08;100.00;100248.45;1785317;80;21276;-86
2021/01/23 00:27:01;;;;;;;20.45;11.33;;;;;;;3.08;100.00;100251.16;1786400;80;21845;-86
2021/01/23 00:30:07;;;;;;;23.47;10.00;;;;;;;3.09;100.00;100243.91;1784802;80;21160;-85
2021/01/23 00:33:14;;;;;;;21.48;9.88;;;;;;;3.13;100.00;100246.72;1784724;80;21820;-86
2021/01/23 00:36:19;;;;;;;17.35;9.65;;;;;;;3.13;100.00;100243.16;1786262;80;21220;-86
2021/01/23 00:39:25;;;;;;;18.60;10.32;;;;;;;3.12;100.00;100243.66;1784774;80;21730;-85
2021/01/23 00:42:31;;;;;;;18.57;9.80;;;;;;;3.10;100.00;100238.00;1785537;80;21188;-86
2021/01/23 00:45:37;;;;;;;18.32;9.08;;;;;;;3.07;100.00;100235.94;1786117;80;21180;-85
2021/01/23 00:48:43;;;;;;;17.17;9.05;;;;;;;3.05;100.00;100231.63;1785212;79;21239;-86
2021/01/23 00:51:48;;;;;;;15.90;8.93;;;;;;;3.02;100.00;100227.36;1769393;80;21833;-85
2021/01/23 00:54:54;;;;;;;18.60;9.88;;;;;;;2.97;100.00;100220.14;1769479;80;21179;-86
2021/01/23 00:58:03;;;;;;;24.70;11.28;;;;;;;2.92;100.00;100216.98;1784706;80;21314;-84
2021/01/23 01:01:09;;;;;;;18.62;10.45;;;;;;;2.92;100.00;100210.72;1784777;80;21602;-86
2021/01/23 01:04:15;;;;;;;19.95;9.40;;;;;;;2.94;100.00;100206.88;1784807;80;21196;-86
2021/01/23 01:07:20;;;;;;;15.28;8.85;;;;;;;2.98;100.00;100195.33;1785947;80;21158;-86
2021/01/23 01:10:26;;;;;;;16.05;9.10;;;;;;;2.98;100.00;100200.73;1786214;80;21616;-87
2021/01/23 01:13:33;;;;;;;22.37;10.50;;;;;;;2.97;100.00;100201.73;1785311;80;21848;-86
2021/01/23 01:16:39;;;;;;;15.93;8.40;;;;;;;2.91;100.00;100194.12;1786085;80;21160;-86
2021/01/23 01:19:45;;;;;;;21.00;9.63;;;;;;;2.85;100.00;100190.09;1786527;80;21148;-86
2021/01/23 01:22:50;;;;;;;23.57;10.98;;;;;;;2.81;100.00;100190.84;1785570;80;21227;-86
2021/01/23 01:25:55;;;;;;;16.97;9.05;;;;;;;2.78;100.00;100186.22;1784859;80;21249;-87
2021/01/23 01:29:02;;;;;;;16.62;8.90;;;;;;;2.79;100.00;100183.37;1784817;80;21377;-87
2021/01/23 01:32:07;;;;;;;14.43;8.65;;;;;;;2.85;100.00;100183.84;1784585;80;21303;-86
2021/01/23 01:35:13;;;;;;;14.95;8.43;;;;;;;2.86;100.00;100187.75;1786328;80;21272;-86
2021/01/23 01:38:12;;;;;;;12.75;7.92;;;;;;;2.87;100.00;100189.49;1785369;80;21165;-86
2021/01/23 01:41:05;;;;;;;14.90;8.83;;;;;;;2.90;100.00;100184.30;1785835;80;21848;-87
2021/01/23 01:43:51;;;;;;;15.25;8.85;;;;;;;2.96;100.00;100181.07;1785050;79;21323;-87
2021/01/23 01:46:44;;;;;;;16.82;8.95;;;;;;;3.01;100.00;100189.17;1786126;80;21146;-86
2021/01/23 01:49:29;;;;;;;14.90;9.13;;;;;;;3.02;100.00;100187.33;1786177;80;21272;-87
2021/01/23 01:52:23;;;;;;;19.55;9.58;;;;;;;3.03;100.00;100189.03;1785992;80;21216;-86
2021/01/23 01:55:11;;;;;;;12.50;7.83;;;;;;;3.00;100.00;100186.58;1784828;80;21793;-87
2021/01/23 01:58:16;;;;;;;13.55;8.50;;;;;;;2.99;100.00;100184.88;1785617;80;21826;-86
2021/01/23 02:01:21;;;;;;;17.85;8.73;;;;;;;2.95;100.00;100188.82;1784632;80;21264;-86
2021/01/23 02:04:36;;;;;;;16.90;9.25;;;;;;;2.93;100.00;100184.91;1784761;80;21292;-86
2021/01/23 02:08:06;;;;;;;16.52;8.65;;;;;;;2.93;100.00;100182.70;1785934;80;21193;-86
2021/01/23 02:11:39;;;;;;;14.05;8.38;;;;;;;2.90;100.00;100185.66;1785943;80;21311;-86
2021/01/23 02:15:10;;;;;;;12.25;7.70;;;;;;;2.85;99.73;100182.49;1785154;80;21729;-86
2021/01/23 02:18:19;;;;;;;19.77;8.45;;;;;;;2.80;99.52;100182.87;1785412;80;21295;-86
2021/01/23 02:21:59;;;;;;;17.87;9.03;;;;;;;2.74;99.34;100186.96;1786093;79;21267;-86
2021/01/23 02:25:05;;;;;;;12.58;7.85;;;;;;;2.73;99.30;100189.77;1784792;80;21224;-86
2021/01/23 02:28:25;;;;;;;16.07;8.70;;;;;;;2.71;99.23;100184.51;1784487;80;21189;-87
2021/01/23 02:31:32;;;;;;;16.97;9.05;;;;;;;2.72;99.24;100187.56;1786214;80;21204;-86
2021/01/23 02:34:39;;;;;;;15.25;7.90;;;;;;;2.77;99.29;100188.03;1785131;80;21813;-87
2021/01/23 02:37:45;;;;;;;17.05;7.87;;;;;;;2.78;99.20;100191.12;1785988;80;21275;-86
2021/01/23 02:40:51;;;;;;;13.43;7.37;;;;;;;2.80;99.08;100185.08;1785133;80;21192;-87
2021/01/23 02:43:56;;;;;;;16.60;8.58;;;;;;;2.84;99.00;100190.23;1785204;80;21326;-87
2021/01/23 02:47:02;;;;;;;12.30;7.37;;;;;;;2.83;98.86;100193.44;1786159;80;21271;-86
2021/01/23 02:50:08;;;;;;;19.95;8.45;;;;;;;2.83;98.72;100189.88;1786246;80;21357;-87
2021/01/23 02:53:28;;;;;;;16.20;8.05;;;;;;;2.83;98.61;100177.23;1785801;80;21185;-87
2021/01/23 02:56:33;;;;;;;12.82;8.28;;;;;;;2.85;98.55;100181.14;1786230;80;21284;-87
2021/01/23 02:59:40;;;;;;;19.98;10.45;;;;;;;2.84;98.49;100186.19;1784661;80;21370;-87
2021/01/23 03:02:53;;;;;;;15.63;9.65;;;;;;;2.83;98.42;100177.23;1785902;79;21294;-86
2021/01/23 03:05:59;;;;;;;17.02;9.98;;;;;;;2.81;98.34;100175.98;1786027;80;21188;-87
2021/01/23 03:09:04;;;;;;;17.42;10.72;;;;;;;2.80;98.29;100172.08;1718218;80;21318;-87
2021/01/23 03:12:12;;;;;;;14.58;9.00;;;;;;;2.76;98.18;100169.27;1730534;83;21335;-87
2021/01/23 03:15:19;;;;;;;14.23;8.88;;;;;;;2.73;98.12;100172.22;1710722;83;21313;-87
2021/01/23 03:18:25;;;;;;;11.45;7.70;;;;;;;2.71;98.11;100170.16;1710958;83;21340;-86
2021/01/23 03:21:31;;;;;;;13.43;8.05;;;;;;;2.68;98.08;100179.39;1728804;83;21700;-86
2021/01/23 03:24:38;;;;;;;9.93;6.75;;;;;;;2.67;98.15;100184.40;1729915;83;21181;-86
2021/01/23 03:27:43;;;;;;;14.15;7.22;;;;;;;2.69;98.25;100178.89;1730273;83;21314;-87
2021/01/23 03:30:48;;;;;;;14.58;8.40;;;;;;;2.70;98.33;100181.45;1730174;83;21323;-86
2021/01/23 03:33:53;;;;;;;13.80;7.33;;;;;;;2.72;98.38;100178.11;1729128;83;21347;-87
2021/01/23 03:37:00;;;;;;;10.18;6.83;;;;;;;2.72;98.44;100175.41;1711779;83;21852;-87
2021/01/23 03:40:04;;;;;;;13.78;7.87;;;;;;;2.71;98.42;100179.11;1730345;83;21880;-87
2021/01/23 03:43:10;;;;;;;11.60;7.08;;;;;;;2.71;98.45;100181.80;1729874;83;21368;-87
2021/01/23 03:46:15;;;;;;;12.00;7.47;;;;;;;2.70;98.40;100181.95;1729124;83;21866;-88
2021/01/23 03:49:21;;;;;;;17.20;7.83;;;;;;;2.71;98.42;100184.51;1729003;83;21241;-87
2021/01/23 03:52:26;;;;;;;12.40;7.17;;;;;;;2.71;98.36;100183.66;1730220;81;21889;-86
2021/01/23 03:55:32;;;;;;;11.95;7.05;;;;;;;2.69;98.35;100175.69;1729444;83;21328;-88
2021/01/23 03:58:37;;;;;;;9.60;6.22;;;;;;;2.70;98.35;100168.44;1729661;83;21288;-87
2021/01/23 04:01:44;;;;;;;10.48;6.55;;;;;;;2.69;98.31;100171.64;1686462;85;21842;-87
2021/01/23 04:04:49;;;;;;;13.10;6.67;;;;;;;2.71;98.34;100166.95;1686158;85;21180;-86
2021/01/23 04:07:54;;;;;;;11.50;7.05;;;;;;;2.72;98.35;100170.01;1686102;85;21874;-87
2021/01/23 04:11:00;;;;;;;12.78;6.55;;;;;;;2.75;98.36;100165.71;1681467;83;21363;-87
2021/01/23 04:14:06;;;;;;;12.13;6.92;;;;;;;2.78;98.38;100171.36;1685335;82;21738;-87
2021/01/23 04:17:12;;;;;;;11.33;6.62;;;;;;;2.81;98.44;100171.08;1681623;82;21307;-88
2021/01/23 04:20:18;;;;;;;10.80;6.10;;;;;;;2.86;98.51;100166.64;1686059;85;21272;-87
2021/01/23 04:23:25;;;;;;;20.10;8.08;;;;;;;2.90;98.54;100171.66;1681025;82;21217;-88
2021/01/23 04:26:24;;;;;;;14.25;7.85;;;;;;;2.91;98.46;100169.30;1685375;82;21324;-88
2021/01/23 04:29:30;;;;;;;15.55;7.62;;;;;;;2.87;98.30;100166.53;1680207;85;21829;-87
2021/01/23 04:32:35;;;;;;;16.45;8.00;;;;;;;2.86;98.26;100176.95;1686312;82;21267;-88
2021/01/23 04:35:41;;;;;;;13.15;7.20;;;;;;;2.87;98.19;100183.20;1693726;85;21633;-87
2021/01/23 04:38:47;;;;;;;16.48;7.55;;;;;;;2.86;98.07;100177.45;1693267;80;21204;-87
2021/01/23 04:41:53;;;;;;;12.03;7.22;;;;;;;2.87;98.17;100171.94;1693723;82;21189;-87
2021/01/23 04:44:57;;;;;;;11.73;6.80;;;;;;;2.96;98.34;100174.32;1694165;85;21291;-88
2021/01/23 04:48:03;;;;;;;13.83;7.87;;;;;;;2.99;98.26;100181.67;1692841;82;21244;-87
2021/01/23 04:51:09;;;;;;;11.08;6.80;;;;;;;3.01;98.23;100177.48;1692886;82;21353;-88
2021/01/23 04:54:14;;;;;;;10.70;6.67;;;;;;;3.05;98.26;100178.94;1692621;84;21228;-88
2021/01/23 04:57:22;;;;;;;10.58;7.37;;;;;;;3.07;98.21;100173.78;1693081;82;21313;-88
2021/01/23 05:00:27;;;;;;;17.52;7.50;;;;;;;3.07;98.08;100168.38;1696705;79;21371;-79
2021/01/23 05:03:33;;;;;;;20.55;7.47;;;;;;;3.07;97.96;100168.88;1726448;83;21884;-79
2021/01/23 05:06:38;;;;;;;11.78;7.10;;;;;;;3.07;97.79;100170.22;1771143;81;21169;-79
2021/01/23 05:09:46;;;;;;;13.25;6.40;;;;;;;3.04;97.59;100169.98;1771994;81;21264;-79
2021/01/23 05:12:58;;;;;;;12.00;7.17;;;;;;;3.04;97.40;100161.88;1770449;81;21782;-79
2021/01/23 05:16:04;;;;;;;11.57;6.30;;;;;;;2.97;97.14;100155.30;1772273;81;21759;-79
2021/01/23 05:19:11;;;;;;;12.18;5.92;;;;;;;2.94;97.07;100162.80;1771916;81;21307;-79
2021/01/23 05:22:15;;;;;;;11.83;7.50;;;;;;;2.94;97.09;100162.80;1772103;81;21257;-79
2021/01/23 05:25:21;;;;;;;13.25;6.78;;;;;;;2.97;97.20;100166.59;1772123;81;21181;-79
2021/01/23 05:28:42;;;;;;;11.90;5.97;;;;;;;3.02;97.29;100173.81;1763633;81;21189;-79
2021/01/23 05:31:48;;;;;;;11.05;5.65;;;;;;;3.06;97.23;100167.16;1771900;81;21272;-79
2021/01/23 05:34:53;;;;;;;19.82;6.83;;;;;;;3.08;97.09;100174.63;1772142;81;21711;-79
2021/01/23 05:37:58;;;;;;;12.65;6.45;;;;;;;3.13;97.07;100183.20;1772157;81;21296;-79
2021/01/23 05:41:17;;;;;;;13.83;5.90;;;;;;;3.18;97.14;100178.75;1772147;81;21766;-79
2021/01/23 05:44:22;;;;;;;8.40;5.80;;;;;;;3.24;97.12;100171.45;1771748;81;21304;-79
2021/01/23 05:47:34;;;;;;;12.78;6.10;;;;;;;3.28;96.92;100169.70;1770324;81;21303;-79
2021/01/23 05:50:39;;;;;;;12.78;6.00;;;;;;;3.30;96.65;100159.63;1771731;81;21154;-78
2021/01/23 05:53:44;;;;;;;9.85;6.12;;;;;;;3.35;96.41;100159.23;1771669;81;21291;-79
2021/01/23 05:56:51;;;;;;;12.03;5.58;;;;;;;3.35;96.12;100160.58;1771671;81;21292;-79
2021/01/23 05:59:56;;;;;;;8.75;5.47;;;;;;;3.35;95.90;100155.67;1771969;81;21814;-79
2021/01/23 06:03:01;;;;;;;12.73;5.47;;;;;;;3.35;95.72;100155.17;1771233;81;21173;-79
2021/01/23 06:06:07;;;;;;;12.37;5.85;;;;;;;3.35;95.46;100149.77;1771999;81;21185;-79
2021/01/23 06:09:12;;;;;;;16.00;7.67;;;;;;;3.37;95.27;100159.09;1771852;81;21877;-78
2021/01/23 06:12:41;;;;;;;11.22;5.87;;;;;;;3.33;94.94;100158.49;1770498;80;21146;-78
2021/01/23 06:15:48;;;;;;;14.53;7.28;;;;;;;3.27;94.77;100158.53;1770704;81;21837;-79
2021/01/23 06:18:53;;;;;;;12.95;7.10;;;;;;;3.27;94.92;100155.83;1770339;81;21303;-79
2021/01/23 06:22:00;;;;;;;17.30;7.70;;;;;;;3.32;95.33;100158.14;1770081;81;21893;-79
2021/01/23 06:25:06;;;;;;;15.13;7.92;;;;;;;3.40;95.60;100154.27;1747388;81;21138;-79
2021/01/23 06:28:10;;;;;;;17.32;7.87;;;;;;;3.44;95.63;100152.17;1734141;82;21319;-78
2021/01/23 06:31:34;;;;;;;15.83;7.85;;;;;;;3.46;95.54;100155.08;1772114;81;21311;-79
2021/01/23 06:34:40;;;;;;;20.75;8.70;;;;;;;3.50;95.41;100150.27;1734658;82;21856;-79
2021/01/23 06:37:46;;;;;;;17.17;7.67;;;;;;;3.54;95.31;100151.22;1771049;81;21181;-78
2021/01/23 06:40:53;;;;;;;16.32;7.83;;;;;;;3.56;95.21;100153.77;1734529;82;21287;-78
2021/01/23 06:44:24;;;;;;;15.13;7.42;;;;;;;3.57;95.17;100152.77;1771255;81;21292;-78
2021/01/23 06:47:30;;;;;;;16.45;6.87;;;;;;;3.59;95.11;100149.45;1734649;82;21976;-78
2021/01/23 06:50:42;;;;;;;15.25;7.70;;;;;;;3.59;94.98;100148.11;1772047;81;21268;-79
2021/01/23 06:53:47;;;;;;;19.12;8.55;;;;;;;3.61;94.89;100151.52;1763867;81;21315;-78
2021/01/23 06:57:01;;;;;;;18.77;8.10;;;;;;;3.62;94.68;100135.64;1735258;82;21173;-78
2021/01/23 07:00:08;;;;;;;17.92;8.43;;;;;;;3.63;94.52;100138.73;1770697;81;21308;-78
2021/01/23 07:03:16;;;;;;;17.77;7.65;;;;;;;3.64;94.43;100138.23;1734724;82;21288;-78
2021/01/23 07:06:22;;;;;;;18.65;8.58;;;;;;;3.65;94.41;100134.53;1772115;81;21268;-78
2021/01/23 07:09:48;;;;;;;15.25;8.10;;;;;;;3.64;94.37;100136.88;1771786;80;21192;-78
2021/01/23 07:12:54;;;;;;;20.77;8.90;;;;;;;3.65;94.57;100132.67;1735136;82;21196;-78
2021/01/23 07:15:59;;;;;;;26.82;9.70;;;;;;;3.64;94.87;100141.79;1772104;81;21244;-78
2021/01/23 07:19:08;;;;;;;15.83;8.28;;;;;;;3.72;95.25;100146.03;1734065;82;21900;-78
2021/01/23 07:22:13;;;;;;;21.85;11.15;;;;;;;3.79;95.47;100140.92;1772247;81;21213;-78
2021/01/23 07:25:22;;;;;;;26.57;11.08;;;;;;;3.88;95.57;100147.36;1772123;81;21253;-78
2021/01/23 07:28:29;;;;;;;29.30;12.53;;;;;;;3.99;95.59;100152.66;1772086;81;21315;-78
2021/01/23 07:31:38;;;;;;;22.70;11.18;;;;;;;4.07;95.52;100150.97;1772310;81;21781;-78
2021/01/23 07:35:04;;;;;;;25.20;11.55;;;;;;;4.15;95.43;100146.23;1772028;81;21158;-79
2021/01/23 07:38:10;;;;;;;26.05;10.98;;;;;;;4.20;95.35;100148.02;1772193;81;21284;-78
2021/01/23 07:41:16;;;;;;;22.35;10.10;;;;;;;4.23;95.19;100153.64;1772075;81;21777;-78
2021/01/23 07:44:22;;;;;;;21.15;10.38;;;;;;;4.23;95.11;100153.13;1772021;81;21774;-78
2021/01/23 07:47:32;;;;;;;31.60;11.83;;;;;;;4.20;94.98;100154.78;1772094;81;21170;-78
2021/01/23 07:50:52;;;;;;;24.35;10.25;;;;;;;4.13;94.95;100158.17;1772203;81;21268;-78
2021/01/23 07:54:19;;;;;;;30.32;10.50;;;;;;;4.08;94.99;100153.18;1772147;81;21292;-78
2021/01/23 07:57:25;;;;;;;27.27;11.78;;;;;;;4.10;95.15;100153.91;1772055;81;21323;-78
2021/01/23 08:00:30;;;;;;;26.45;11.50;;;;;;;4.24;95.26;100154.02;1772011;81;21355;-78
2021/01/23 08:03:44;;;;;;;22.98;10.50;;;;;;;4.32;94.96;100152.30;1771979;81;21291;-78
2021/01/23 08:06:49;;;;;;;24.77;8.93;;;;;;;4.39;94.64;100150.41;1780388;80;21303;-78
2021/01/23 08:10:16;;;;;;;20.52;8.78;;;;;;;4.42;94.36;100148.75;1742814;82;21248;-78
2021/01/23 08:13:21;;;;;;;24.20;9.88;;;;;;;4.40;94.08;100151.61;1697391;84;21335;-78
2021/01/23 08:16:26;;;;;;;24.63;8.75;;;;;;;4.36;93.87;100151.02;1705098;84;21339;-78
2021/01/23 08:19:32;;;;;;;27.87;8.80;;;;;;;4.32;93.88;100143.32;1705504;84;21324;-78
2021/01/23 08:22:38;;;;;;;33.95;11.53;;;;;;;4.30;94.01;100147.53;1705769;84;21885;-78
2021/01/23 08:25:57;;;;;;;28.40;9.40;;;;;;;4.25;94.13;100144.39;1705539;84;21288;-78
2021/01/23 08:29:04;;;;;;;21.00;9.55;;;;;;;4.24;94.28;100148.61;1704501;84;21320;-78
2021/01/23 08:32:10;;;;;;;29.95;11.45;;;;;;;4.27;94.61;100142.39;1704022;84;21363;-78
2021/01/23 08:35:18;;;;;;;36.80;11.00;;;;;;;4.31;94.81;100137.55;1705761;84;21257;-78
2021/01/23 08:38:24;;;;;;;28.20;11.43;;;;;;;4.39;94.93;100139.57;1705584;84;21304;-78
2021/01/23 08:41:30;;;;;;;24.60;10.82;;;;;;;4.42;94.91;100137.91;1705746;84;21288;-78
2021/01/23 08:44:35;;;;;;;31.93;12.37;;;;;;;4.48;94.82;100140.08;1705932;84;21295;-77
2021/01/23 08:47:41;;;;;;;25.65;11.00;;;;;;;4.51;94.67;100141.13;1705902;84;21338;-77
2021/01/23 08:50:48;;;;;;;29.00;11.48;;;;;;;4.57;94.61;100141.44;1705718;84;21319;-78
2021/01/23 08:53:54;;;;;;;32.08;11.18;;;;;;;4.65;94.51;100143.92;1705712;84;21920;-78
2021/01/23 08:57:01;;;;;;;36.55;12.98;;;;;;;4.68;94.26;100143.14;1705616;84;21165;-77
2021/01/23 09:00:07;;;;;;;32.25;11.78;;;;;;;4.72;94.07;100144.58;1705606;84;21344;-78
2021/01/23 09:03:11;;;;;;;32.58;12.23;;;;;;;4.76;93.89;100152.78;1705619;84;21362;-78
2021/01/23 09:06:17;;;;;;;38.45;13.70;;;;;;;4.78;93.75;100146.70;1704197;84;21212;-78
2021/01/23 09:09:23;;;;;;;42.30;13.75;;;;;;;4.81;93.63;100146.93;1705893;84;21854;-78
2021/01/23 09:12:29;;;;;;;37.13;12.70;;;;;;;4.84;93.48;100147.98;1705945;84;21327;-78
2021/01/23 09:15:35;;;;;;;43.73;13.75;;;;;;;4.85;93.29;100149.72;1705979;84;21281;-78
2021/01/23 09:18:40;;;;;;;31.60;12.50;;;;;;;4.91;93.30;100148.28;1705841;84;21320;-77
2021/01/23 09:21:46;;;;;;;32.15;11.35;;;;;;;4.99;93.19;100152.48;1705785;84;21169;-78
2021/01/23 09:24:52;;;;;;;37.95;11.78;;;;;;;4.99;92.82;100144.36;1706003;84;21161;-78
2021/01/23 09:27:58;;;;;;;29.87;11.15;;;;;;;4.95;92.59;100132.09;1705948;84;21216;-77
2021/01/23 09:31:02;;;;;;;29.23;9.60;;;;;;;4.86;92.53;100140.58;1705734;84;21169;-77
2021/01/23 09:34:08;;;;;;;31.00;11.53;;;;;;;4.80;92.73;100135.74;1705930;84;21345;-77
2021/01/23 09:37:13;;;;;;;34.65;13.08;;;;;;;4.75;92.94;100137.53;1705806;84;21292;-77
2021/01/23 09:40:19;;;;;;;33.50;11.97;;;;;;;4.75;93.21;100132.11;1705792;84;21356;-77
2021/01/23 09:43:26;;;;;;;28.32;10.95;;;;;;;4.75;93.42;100135.28;1705938;84;21348;-85
2021/01/23 09:46:32;;;;;;;24.67;10.60;;;;;;;4.78;93.77;100128.23;1704712;84;21312;-85
2021/01/23 09:49:38;;;;;;;23.87;10.10;;;;;;;4.83;94.03;100130.02;1704598;84;21296;-85
2021/01/23 09:52:44;;;;;;;25.32;9.53;;;;;;;4.82;94.10;100131.87;1705989;84;21881;-84
2021/01/23 09:55:50;;;;;;;24.98;11.03;;;;;;;4.83;94.16;100120.53;1705770;84;21276;-85
2021/01/23 09:58:57;;;;;;;28.25;10.45;;;;;;;4.77;94.15;100108.41;1705072;84;21375;-85
2021/01/23 10:02:02;;;;;;;28.85;11.68;;;;;;;4.72;94.36;100106.64;1705759;84;21323;-85
2021/01/23 10:05:08;;;;;;;25.90;11.33;;;;;;;4.66;94.57;100104.52;1705692;84;21292;-84
2021/01/23 10:08:13;;;;;;;22.13;10.65;;;;;;;4.61;94.93;100108.13;1695610;84;21317;-85
2021/01/23 10:11:20;;;;;;;30.12;12.03;;;;;;;4.59;95.43;100108.28;1696630;84;21170;-85
2021/01/23 10:14:24;;;;;;;28.70;13.30;;;;;;;4.61;95.79;100098.64;1696486;84;21956;-84
2021/01/23 10:17:30;;;;;;;32.78;12.90;;;;;;;4.63;96.18;100102.08;1697895;84;21918;-84
2021/01/23 10:20:39;;;;;;;26.10;12.23;;;;;;;4.68;96.67;100099.80;1697261;84;21363;-84
2021/01/23 10:23:45;;;;;;;36.95;14.75;;;;;;;4.72;96.99;100089.03;1697389;84;21355;-84
2021/01/23 10:26:51;;;;;;;34.23;13.95;;;;;;;4.76;97.33;100089.10;1680049;84;21818;-85
2021/01/23 10:29:56;;;;;;;28.90;14.18;;;;;;;4.78;97.67;100081.67;1698224;84;21345;-84
2021/01/23 10:33:02;;;;;;;30.50;13.65;;;;;;;4.77;97.94;100084.03;1697550;84;21225;-84
2021/01/23 10:36:07;;;;;;;29.50;14.05;;;;;;;4.79;98.19;100074.39;1698016;84;21277;-84
2021/01/23 10:39:12;;;;;;;21.33;12.50;;;;;;;4.81;98.42;100075.12;1696936;84;21217;-84
2021/01/23 10:42:17;;;;;;;31.07;14.10;;;;;;;4.84;98.53;100074.80;1698268;84;21300;-84
2021/01/23 10:45:22;;;;;;;38.67;14.70;;;;;;;4.85;98.64;100069.77;1697994;84;21174;-83
2021/01/23 10:48:27;;;;;;;26.65;12.45;;;;;;;4.85;98.69;100075.19;1698024;84;21194;-83
2021/01/23 10:51:32;;;;;;;33.10;13.60;;;;;;;4.88;98.80;100068.95;1696730;84;21218;-77
2021/01/23 10:54:39;;;;;;;28.27;13.72;;;;;;;4.91;98.83;100067.81;1698154;84;21180;-77
2021/01/23 10:57:47;;;;;;;28.77;11.95;;;;;;;4.93;98.78;100065.80;1697778;84;21245;-77
2021/01/23 11:00:52;;;;;;;28.62;13.10;;;;;;;4.93;98.66;100055.47;1697726;84;21897;-77
2021/01/23 11:03:57;;;;;;;29.32;12.70;;;;;;;4.93;98.46;100054.11;1697811;84;21359;-76
2021/01/23 11:07:03;;;;;;;28.45;14.18;;;;;;;4.90;98.28;100059.84;1697613;84;21293;-77
2021/01/23 11:10:10;;;;;;;30.00;12.15;;;;;;;4.89;98.19;100053.54;1698002;84;21316;-76
2021/01/23 11:13:14;;;;;;;22.85;12.07;;;;;;;4.91;98.15;100057.48;1697506;84;21320;-77
2021/01/23 11:16:19;;;;;;;29.12;12.63;;;;;;;4.92;97.94;100051.91;1698018;84;21767;-76
2021/01/23 11:19:25;;;;;;;26.95;11.93;;;;;;;4.91;97.67;100054.77;1697614;84;21303;-77
2021/01/23 11:22:31;;;;;;;25.20;11.25;;;;;;;4.94;97.54;100055.81;1696812;84;21742;-77
2021/01/23 11:25:37;;;;;;;25.20;11.93;;;;;;;4.98;97.41;100055.88;1698037;84;21295;-77
2021/01/23 11:28:43;;;;;;;21.75;11.03;;;;;;;5.01;97.20;100054.23;1696858;84;21327;-77
2021/01/23 11:31:49;;;;;;;22.73;12.37;;;;;;;5.03;96.90;100059.85;1698212;84;21292;-76
2021/01/23 11:34:54;;;;;;;29.27;12.73;;;;;;;5.06;96.75;100049.23;1698060;84;21193;-76
2021/01/23 11:38:02;;;;;;;24.10;13.70;;;;;;;5.10;96.54;100047.94;1698129;84;21323;-76
2021/01/23 11:41:06;;;;;;;23.25;12.93;;;;;;;5.07;96.32;100049.58;1698162;84;21308;-76
2021/01/23 11:44:13;;;;;;;25.62;11.95;;;;;;;5.06;96.23;100054.66;1698134;84;21316;-77
2021/01/23 11:47:19;;;;;;;21.75;12.10;;;;;;;5.09;96.31;100061.14;1698170;84;21319;-76
2021/01/23 11:50:26;;;;;;;21.93;11.28;;;;;;;5.12;96.26;100059.48;1697971;84;21319;-76
2021/01/23 11:53:32;;;;;;;22.80;11.90;;;;;;;5.12;96.20;100058.13;1698141;84;21351;-76
2021/01/23 11:56:38;;;;;;;25.15;10.65;;;;;;;5.16;96.28;100055.47;1698203;84;21743;-76
2021/01/23 11:59:45;;;;;;;25.32;12.73;;;;;;;5.18;96.46;100053.48;1696650;84;21297;-76
2021/01/23 12:02:51;;;;;;;18.65;10.18;;;;;;;5.23;96.69;100051.69;1696731;84;21359;-76
2021/01/23 12:05:57;;;;;;;25.80;11.95;;;;;;;5.29;97.00;100054.65;1698028;84;21285;-76
2021/01/23 12:09:02;;;;;;;24.52;11.15;;;;;;;5.34;97.11;100047.42;1696496;84;21300;-77
2021/01/23 12:12:09;;;;;;;18.65;10.50;;;;;;;5.37;97.09;100048.48;1697540;84;21778;-76
2021/01/23 12:15:16;;;;;;;30.90;12.60;;;;;;;5.34;97.07;100046.06;1698149;84;21303;-76
2021/01/23 12:18:20;;;;;;;22.85;11.93;;;;;;;5.32;97.14;100048.94;1698132;84;21319;-77
2021/01/23 12:21:26;;;;;;;23.38;11.35;;;;;;;5.34;97.29;100049.63;1698108;84;21217;-77
2021/01/23 12:24:32;;;;;;;23.55;11.35;;;;;;;5.36;97.37;100050.34;1698004;84;21838;-76
2021/01/23 12:27:37;;;;;;;27.52;12.50;;;;;;;5.39;97.41;100053.25;1697902;84;21312;-76
2021/01/23 12:30:45;;;;;;;23.02;11.57;;;;;;;5.42;97.33;100050.75;1698106;84;21189;-76
2021/01/23 12:33:51;;;;;;;23.30;10.65;;;;;;;5.41;97.08;100059.39;1698077;84;21794;-75
2021/01/23 12:36:56;;;;;;;21.33;11.43;;;;;;;5.41;96.94;100054.45;1697905;84;21213;-77
2021/01/23 12:40:02;;;;;;;26.07;11.70;;;;;;;5.46;96.78;100057.56;1698134;84;21288;-76
2021/01/23 12:43:08;;;;;;;21.50;11.75;;;;;;;5.44;96.43;100050.09;1696998;84;21328;-76
2021/01/23 12:46:14;;;;;;;23.57;11.18;;;;;;;5.43;96.25;100057.87;1697371;84;21320;-76
2021/01/23 12:49:19;;;;;;;19.65;10.25;;;;;;;5.42;96.14;100053.47;1697336;84;21336;-76
2021/01/23 12:52:25;;;;;;;26.00;11.45;;;;;;;5.44;96.06;100061.79;1697445;84;21347;-77
2021/01/23 12:55:32;;;;;;;23.18;11.35;;;;;;;5.42;95.80;100061.61;1697462;84;21210;-76
2021/01/23 12:58:37;;;;;;;24.00;12.73;;;;;;;5.38;95.74;100056.97;1698109;84;21316;-76
2021/01/23 13:01:46;;;;;;;17.85;10.53;;;;;;;5.40;95.84;100057.66;1698096;84;21285;-76
2021/01/23 13:04:52;;;;;;;;;;;;;;;5.44;95.89;100056.87;1700567;84;21308;-76
2021/01/23 13:07:57;;;;;;;21.20;11.63;;;;;;;5.48;95.88;100056.42;1698102;84;20267;-76
2021/01/23 13:11:03;;;;;;;24.23;10.48;;;;;;;5.51;95.92;100053.42;1696896;83;21233;-76
2021/01/23 13:14:10;;;;;;;19.82;10.03;;;;;;;5.56;95.82;100053.82;1696759;84;21225;-76
2021/01/23 13:17:14;;;;;;;23.77;10.95;;;;;;;5.58;95.72;100053.66;1698180;84;21272;-76
2021/01/23 13:20:21;;;;;;;21.27;11.15;;;;;;;5.58;95.57;100052.30;1698109;84;21331;-76
2021/01/23 13:23:27;;;;;;;23.02;11.43;;;;;;;5.54;95.43;100055.81;1698033;84;21312;-76
2021/01/23 13:26:35;;;;;;;25.40;11.70;;;;;;;5.53;95.45;100057.33;1698104;84;21747;-76
2021/01/23 13:29:39;;;;;;;24.25;11.70;;;;;;;5.47;95.53;100050.66;1697868;84;21293;-76
2021/01/23 13:32:46;;;;;;;20.75;11.48;;;;;;;5.43;95.62;100050.59;1698119;84;21217;-76
2021/01/23 13:35:51;;;;;;;27.65;13.58;;;;;;;5.41;95.78;100048.55;1697356;84;21952;-76
2021/01/23 13:38:57;;;;;;;34.08;13.65;;;;;;;5.36;95.86;100046.75;1696950;84;21311;-76
2021/01/23 13:42:04;;;;;;;30.00;14.28;;;;;;;5.29;95.97;100048.38;1697809;84;21304;-76
2021/01/23 13:45:10;;;;;;;28.70;15.25;;;;;;;5.21;96.19;100053.17;1697896;84;21292;-76
2021/01/23 13:48:16;;;;;;;30.50;14.65;;;;;;;5.20;96.55;100056.04;1697429;84;21331;-76
2021/01/23 13:51:21;;;;;;;26.33;14.35;;;;;;;5.16;96.83;100057.33;1697196;84;21363;-76
2021/01/23 13:54:29;;;;;;;24.92;12.60;;;;;;;5.11;97.04;100055.06;1697007;84;21299;-76
2021/01/23 13:57:34;;;;;;;26.82;14.40;;;;;;;5.11;97.41;100053.70;1697827;84;21339;-76
2021/01/23 14:00:39;;;;;;;34.08;15.28;;;;;;;5.11;97.70;100053.70;1698030;84;21276;-76
2021/01/23 14:03:46;;;;;;;30.32;15.23;;;;;;;5.09;98.00;100051.66;1696972;84;21193;-76
2021/01/23 14:06:52;;;;;;;27.95;14.20;;;;;;;5.07;98.28;100061.27;1697048;84;21370;-76
2021/01/23 14:09:58;;;;;;;32.08;14.50;;;;;;;5.07;98.62;100055.00;1698101;84;21237;-76
2021/01/23 14:13:04;;;;;;;33.15;15.13;;;;;;;5.07;98.92;100052.29;1697445;84;21355;-76
2021/01/23 14:16:09;;;;;;;28.95;15.20;;;;;;;5.06;99.20;100050.08;1697956;84;21866;-76
2021/01/23 14:19:15;;;;;;;27.85;14.65;;;;;;;5.05;99.42;100048.88;1696796;84;21320;-76
2021/01/23 14:22:21;;;;;;;27.98;14.73;;;;;;;5.04;99.61;100056.17;1697043;84;21215;-76